sensor_id;sensor_type;location;lat;lon;timestamp;P1;durP1;ratioP1;P2;durP2;ratioP2
80163;SDS011;69489;55.130;61.268;2023-05-07T00:01:57;7.03;;;5.03;;
80163;SDS011;69489;55.130;61.268;2023-05-07T00:04:22;7.50;;;4.90;;
80163;SDS011;69489;55.130;61.268;2023-05-07T00:06:48;7.63;;;5.20;;
80163;SDS011;69489;55.130;61.268;2023-05-07T00:09:14;8.73;;;4.90;;
80163;SDS011;69489;55.130;61.268;2023-05-07T00:11:41;6.93;;;4.90;;
80163;SDS011;69489;55.130;61.268;2023-05-07T00:14:07;5.35;;;4.00;;
80163;SDS011;69489;55.130;61.268;2023-05-07T00:16:33;7.50;;;4.18;;
80163;SDS011;69489;55.130;61.268;2023-05-07T00:18:58;9.90;;;4.03;;
80163;SDS011;69489;55.130;61.268;2023-05-07T00:21:25;8.13;;;3.58;;
80163;SDS011;69489;55.130;61.268;2023-05-07T00:23:53;6.10;;;3.70;;
80163;SDS011;69489;55.130;61.268;2023-05-07T00:28:45;7.70;;;3.83;;
80163;SDS011;69489;55.130;61.268;2023-05-07T00:31:11;6.03;;;3.40;;
80163;SDS011;69489;55.130;61.268;2023-05-07T00:33:37;6.43;;;3.83;;
80163;SDS011;69489;55.130;61.268;2023-05-07T00:36:03;5.65;;;3.15;;
80163;SDS011;69489;55.130;61.268;2023-05-07T00:38:29;8.02;;;3.70;;
80163;SDS011;69489;55.130;61.268;2023-05-07T00:40:55;7.57;;;3.60;;
80163;SDS011;69489;55.130;61.268;2023-05-07T00:43:21;4.43;;;2.97;;
80163;SDS011;69489;55.130;61.268;2023-05-07T00:45:47;6.97;;;3.67;;
80163;SDS011;69489;55.130;61.268;2023-05-07T00:48:12;5.80;;;3.50;;
80163;SDS011;69489;55.130;61.268;2023-05-07T00:50:38;6.70;;;3.28;;
80163;SDS011;69489;55.130;61.268;2023-05-07T00:53:04;5.75;;;3.17;;
80163;SDS011;69489;55.130;61.268;2023-05-07T00:55:32;5.25;;;3.33;;
80163;SDS011;69489;55.130;61.268;2023-05-07T00:57:58;5.90;;;3.42;;
80163;SDS011;69489;55.130;61.268;2023-05-07T01:02:50;5.72;;;3.67;;
80163;SDS011;69489;55.130;61.268;2023-05-07T01:05:17;6.10;;;3.78;;
80163;SDS011;69489;55.130;61.268;2023-05-07T01:07:45;7.88;;;4.38;;
80163;SDS011;69489;55.130;61.268;2023-05-07T01:10:12;8.25;;;3.60;;
80163;SDS011;69489;55.130;61.268;2023-05-07T01:12:39;6.25;;;3.42;;
80163;SDS011;69489;55.130;61.268;2023-05-07T01:15:07;6.20;;;3.35;;
80163;SDS011;69489;55.130;61.268;2023-05-07T01:17:41;4.78;;;3.35;;
80163;SDS011;69489;55.130;61.268;2023-05-07T01:20:08;5.47;;;3.65;;
80163;SDS011;69489;55.130;61.268;2023-05-07T01:22:35;19.45;;;12.77;;
80163;SDS011;69489;55.130;61.268;2023-05-07T01:25:03;17.02;;;10.18;;
80163;SDS011;69489;55.130;61.268;2023-05-07T01:27:30;16.63;;;9.55;;
80163;SDS011;69489;55.130;61.268;2023-05-07T01:29:58;6.63;;;4.10;;
80163;SDS011;69489;55.130;61.268;2023-05-07T01:32:27;7.75;;;3.65;;
80163;SDS011;69489;55.130;61.268;2023-05-07T01:34:57;6.88;;;3.30;;
80163;SDS011;69489;55.130;61.268;2023-05-07T01:37:24;5.72;;;3.33;;
80163;SDS011;69489;55.130;61.268;2023-05-07T01:39:51;4.32;;;3.05;;
80163;SDS011;69489;55.130;61.268;2023-05-07T01:42:18;5.15;;;3.58;;
80163;SDS011;69489;55.130;61.268;2023-05-07T01:44:43;6.38;;;3.20;;
80163;SDS011;69489;55.130;61.268;2023-05-07T01:47:09;5.68;;;2.95;;
80163;SDS011;69489;55.130;61.268;2023-05-07T01:49:36;7.15;;;4.03;;
80163;SDS011;69489;55.130;61.268;2023-05-07T01:52:03;5.95;;;4.13;;
80163;SDS011;69489;55.130;61.268;2023-05-07T01:54:29;6.68;;;3.80;;
80163;SDS011;69489;55.130;61.268;2023-05-07T01:56:56;5.32;;;3.63;;
80163;SDS011;69489;55.130;61.268;2023-05-07T01:59:22;7.38;;;3.72;;
80163;SDS011;69489;55.130;61.268;2023-05-07T02:01:48;5.28;;;3.55;;
80163;SDS011;69489;55.130;61.268;2023-05-07T02:04:13;5.68;;;3.63;;
80163;SDS011;69489;55.130;61.268;2023-05-07T02:06:39;8.80;;;3.90;;
80163;SDS011;69489;55.130;61.268;2023-05-07T02:09:05;6.50;;;3.72;;
80163;SDS011;69489;55.130;61.268;2023-05-07T02:11:31;8.45;;;3.67;;
80163;SDS011;69489;55.130;61.268;2023-05-07T02:13:57;7.15;;;3.72;;
80163;SDS011;69489;55.130;61.268;2023-05-07T02:16:23;5.38;;;3.60;;
80163;SDS011;69489;55.130;61.268;2023-05-07T02:18:49;5.88;;;4.28;;
80163;SDS011;69489;55.130;61.268;2023-05-07T02:21:15;7.55;;;4.35;;
80163;SDS011;69489;55.130;61.268;2023-05-07T02:23:40;6.00;;;3.78;;
80163;SDS011;69489;55.130;61.268;2023-05-07T02:26:06;7.32;;;3.78;;
80163;SDS011;69489;55.130;61.268;2023-05-07T02:28:32;10.35;;;4.28;;
80163;SDS011;69489;55.130;61.268;2023-05-07T02:31:02;8.60;;;3.78;;
80163;SDS011;69489;55.130;61.268;2023-05-07T02:33:28;10.77;;;5.65;;
80163;SDS011;69489;55.130;61.268;2023-05-07T02:35:54;10.05;;;4.68;;
80163;SDS011;69489;55.130;61.268;2023-05-07T02:38:21;13.55;;;8.27;;
80163;SDS011;69489;55.130;61.268;2023-05-07T02:40:47;6.40;;;4.38;;
80163;SDS011;69489;55.130;61.268;2023-05-07T02:43:13;11.82;;;4.93;;
80163;SDS011;69489;55.130;61.268;2023-05-07T02:45:39;8.85;;;4.82;;
80163;SDS011;69489;55.130;61.268;2023-05-07T02:48:05;9.90;;;4.38;;
80163;SDS011;69489;55.130;61.268;2023-05-07T02:50:31;6.25;;;3.70;;
80163;SDS011;69489;55.130;61.268;2023-05-07T02:52:57;7.05;;;4.28;;
80163;SDS011;69489;55.130;61.268;2023-05-07T02:55:23;5.80;;;4.18;;
80163;SDS011;69489;55.130;61.268;2023-05-07T02:57:49;6.82;;;4.00;;
80163;SDS011;69489;55.130;61.268;2023-05-07T03:00:16;8.15;;;4.13;;
80163;SDS011;69489;55.130;61.268;2023-05-07T03:02:43;7.05;;;4.13;;
80163;SDS011;69489;55.130;61.268;2023-05-07T03:05:10;9.05;;;4.13;;
80163;SDS011;69489;55.130;61.268;2023-05-07T03:07:36;10.43;;;4.53;;
80163;SDS011;69489;55.130;61.268;2023-05-07T03:10:02;8.98;;;4.63;;
80163;SDS011;69489;55.130;61.268;2023-05-07T03:12:29;6.53;;;3.97;;
80163;SDS011;69489;55.130;61.268;2023-05-07T03:14:55;6.03;;;4.25;;
80163;SDS011;69489;55.130;61.268;2023-05-07T03:17:21;9.90;;;4.50;;
80163;SDS011;69489;55.130;61.268;2023-05-07T03:19:47;7.50;;;4.55;;
80163;SDS011;69489;55.130;61.268;2023-05-07T03:22:12;5.97;;;3.88;;
80163;SDS011;69489;55.130;61.268;2023-05-07T03:24:38;7.85;;;5.07;;
80163;SDS011;69489;55.130;61.268;2023-05-07T03:27:04;8.55;;;4.63;;
80163;SDS011;69489;55.130;61.268;2023-05-07T03:29:30;6.72;;;4.15;;
80163;SDS011;69489;55.130;61.268;2023-05-07T03:31:55;11.13;;;4.50;;
80163;SDS011;69489;55.130;61.268;2023-05-07T03:34:21;9.40;;;4.47;;
80163;SDS011;69489;55.130;61.268;2023-05-07T03:36:50;5.82;;;4.50;;
80163;SDS011;69489;55.130;61.268;2023-05-07T03:39:16;8.90;;;5.10;;
80163;SDS011;69489;55.130;61.268;2023-05-07T03:41:42;68.43;;;46.78;;
80163;SDS011;69489;55.130;61.268;2023-05-07T03:44:08;9.77;;;5.40;;
80163;SDS011;69489;55.130;61.268;2023-05-07T03:46:33;12.82;;;7.55;;
80163;SDS011;69489;55.130;61.268;2023-05-07T03:51:25;10.02;;;4.82;;
80163;SDS011;69489;55.130;61.268;2023-05-07T03:53:51;7.30;;;4.70;;
80163;SDS011;69489;55.130;61.268;2023-05-07T03:56:22;6.30;;;4.68;;
80163;SDS011;69489;55.130;61.268;2023-05-07T03:58:51;7.40;;;4.75;;
80163;SDS011;69489;55.130;61.268;2023-05-07T04:01:17;10.50;;;4.80;;
80163;SDS011;69489;55.130;61.268;2023-05-07T04:03:43;8.93;;;4.68;;
80163;SDS011;69489;55.130;61.268;2023-05-07T04:06:09;6.63;;;4.13;;
80163;SDS011;69489;55.130;61.268;2023-05-07T04:08:35;14.40;;;4.40;;
80163;SDS011;69489;55.130;61.268;2023-05-07T04:11:01;11.35;;;4.93;;
80163;SDS011;69489;55.130;61.268;2023-05-07T04:13:27;7.40;;;5.15;;
80163;SDS011;69489;55.130;61.268;2023-05-07T04:15:54;7.82;;;4.57;;
80163;SDS011;69489;55.130;61.268;2023-05-07T04:18:20;11.88;;;5.35;;
80163;SDS011;69489;55.130;61.268;2023-05-07T04:20:47;7.60;;;5.22;;
80163;SDS011;69489;55.130;61.268;2023-05-07T04:23:14;10.80;;;5.97;;
80163;SDS011;69489;55.130;61.268;2023-05-07T04:25:40;9.73;;;5.32;;
80163;SDS011;69489;55.130;61.268;2023-05-07T04:28:06;8.40;;;5.53;;
80163;SDS011;69489;55.130;61.268;2023-05-07T04:30:32;14.25;;;5.45;;
80163;SDS011;69489;55.130;61.268;2023-05-07T04:32:58;9.57;;;5.97;;
80163;SDS011;69489;55.130;61.268;2023-05-07T04:35:24;8.88;;;5.25;;
80163;SDS011;69489;55.130;61.268;2023-05-07T04:37:49;10.52;;;6.47;;
80163;SDS011;69489;55.130;61.268;2023-05-07T04:40:15;11.55;;;5.63;;
80163;SDS011;69489;55.130;61.268;2023-05-07T04:42:41;8.95;;;5.78;;
80163;SDS011;69489;55.130;61.268;2023-05-07T04:45:07;13.57;;;6.28;;
80163;SDS011;69489;55.130;61.268;2023-05-07T04:47:34;8.98;;;6.22;;
80163;SDS011;69489;55.130;61.268;2023-05-07T04:49:59;10.77;;;5.57;;
80163;SDS011;69489;55.130;61.268;2023-05-07T04:52:25;10.30;;;6.15;;
80163;SDS011;69489;55.130;61.268;2023-05-07T04:54:51;10.93;;;6.88;;
80163;SDS011;69489;55.130;61.268;2023-05-07T04:57:17;16.65;;;8.70;;
80163;SDS011;69489;55.130;61.268;2023-05-07T04:59:43;10.85;;;6.63;;
80163;SDS011;69489;55.130;61.268;2023-05-07T05:02:10;17.55;;;8.32;;
80163;SDS011;69489;55.130;61.268;2023-05-07T05:04:36;16.13;;;9.38;;
80163;SDS011;69489;55.130;61.268;2023-05-07T05:07:02;42.13;;;20.92;;
80163;SDS011;69489;55.130;61.268;2023-05-07T05:09:31;19.48;;;11.23;;
80163;SDS011;69489;55.130;61.268;2023-05-07T05:11:57;40.47;;;20.67;;
80163;SDS011;69489;55.130;61.268;2023-05-07T05:14:22;27.58;;;12.00;;
80163;SDS011;69489;55.130;61.268;2023-05-07T05:16:48;9.82;;;7.18;;
80163;SDS011;69489;55.130;61.268;2023-05-07T05:19:14;10.63;;;6.82;;
80163;SDS011;69489;55.130;61.268;2023-05-07T05:21:40;10.50;;;5.93;;
80163;SDS011;69489;55.130;61.268;2023-05-07T05:24:06;7.30;;;4.53;;
80163;SDS011;69489;55.130;61.268;2023-05-07T05:26:32;7.78;;;4.30;;
80163;SDS011;69489;55.130;61.268;2023-05-07T05:28:57;6.20;;;3.50;;
80163;SDS011;69489;55.130;61.268;2023-05-07T05:31:23;7.20;;;3.90;;
80163;SDS011;69489;55.130;61.268;2023-05-07T05:33:49;5.63;;;4.25;;
80163;SDS011;69489;55.130;61.268;2023-05-07T05:36:15;6.78;;;3.80;;
80163;SDS011;69489;55.130;61.268;2023-05-07T05:38:41;6.70;;;3.60;;
80163;SDS011;69489;55.130;61.268;2023-05-07T05:41:07;7.32;;;4.07;;
80163;SDS011;69489;55.130;61.268;2023-05-07T05:43:33;8.27;;;4.32;;
80163;SDS011;69489;55.130;61.268;2023-05-07T05:45:58;5.57;;;3.35;;
80163;SDS011;69489;55.130;61.268;2023-05-07T05:48:25;7.32;;;3.40;;
80163;SDS011;69489;55.130;61.268;2023-05-07T05:50:51;5.22;;;3.03;;
80163;SDS011;69489;55.130;61.268;2023-05-07T05:53:17;5.82;;;3.08;;
80163;SDS011;69489;55.130;61.268;2023-05-07T05:55:42;5.75;;;3.55;;
80163;SDS011;69489;55.130;61.268;2023-05-07T06:00:34;8.55;;;3.72;;
80163;SDS011;69489;55.130;61.268;2023-05-07T06:03:00;6.13;;;3.42;;
80163;SDS011;69489;55.130;61.268;2023-05-07T06:05:26;7.05;;;3.72;;
80163;SDS011;69489;55.130;61.268;2023-05-07T06:07:52;5.90;;;3.97;;
80163;SDS011;69489;55.130;61.268;2023-05-07T06:10:18;12.70;;;3.83;;
80163;SDS011;69489;55.130;61.268;2023-05-07T06:12:44;9.40;;;3.63;;
80163;SDS011;69489;55.130;61.268;2023-05-07T06:17:35;5.15;;;3.28;;
80163;SDS011;69489;55.130;61.268;2023-05-07T06:20:01;4.78;;;3.25;;
80163;SDS011;69489;55.130;61.268;2023-05-07T06:22:28;6.50;;;3.20;;
80163;SDS011;69489;55.130;61.268;2023-05-07T06:24:53;4.28;;;3.20;;
80163;SDS011;69489;55.130;61.268;2023-05-07T06:27:19;6.05;;;3.47;;
80163;SDS011;69489;55.130;61.268;2023-05-07T06:29:45;4.35;;;2.75;;
80163;SDS011;69489;55.130;61.268;2023-05-07T06:32:11;6.70;;;3.17;;
80163;SDS011;69489;55.130;61.268;2023-05-07T06:34:39;7.60;;;3.00;;
80163;SDS011;69489;55.130;61.268;2023-05-07T06:37:05;6.35;;;3.40;;
80163;SDS011;69489;55.130;61.268;2023-05-07T06:39:32;5.63;;;2.78;;
80163;SDS011;69489;55.130;61.268;2023-05-07T06:42:00;5.50;;;3.20;;
80163;SDS011;69489;55.130;61.268;2023-05-07T06:44:27;4.80;;;2.88;;
80163;SDS011;69489;55.130;61.268;2023-05-07T06:46:53;3.45;;;2.45;;
80163;SDS011;69489;55.130;61.268;2023-05-07T06:49:19;8.05;;;3.00;;
80163;SDS011;69489;55.130;61.268;2023-05-07T06:51:44;6.10;;;2.78;;
80163;SDS011;69489;55.130;61.268;2023-05-07T06:54:10;6.15;;;2.53;;
80163;SDS011;69489;55.130;61.268;2023-05-07T06:56:36;8.05;;;3.10;;
80163;SDS011;69489;55.130;61.268;2023-05-07T06:59:02;5.93;;;3.60;;
80163;SDS011;69489;55.130;61.268;2023-05-07T07:01:28;3.78;;;2.63;;
80163;SDS011;69489;55.130;61.268;2023-05-07T07:03:54;6.50;;;3.42;;
80163;SDS011;69489;55.130;61.268;2023-05-07T07:06:20;7.28;;;4.35;;
80163;SDS011;69489;55.130;61.268;2023-05-07T07:08:46;6.50;;;3.50;;
80163;SDS011;69489;55.130;61.268;2023-05-07T07:11:11;8.02;;;3.58;;
80163;SDS011;69489;55.130;61.268;2023-05-07T07:16:03;10.38;;;3.20;;
80163;SDS011;69489;55.130;61.268;2023-05-07T07:18:29;10.13;;;3.40;;
80163;SDS011;69489;55.130;61.268;2023-05-07T07:23:20;7.78;;;3.13;;
80163;SDS011;69489;55.130;61.268;2023-05-07T07:28:12;10.45;;;4.13;;
80163;SDS011;69489;55.130;61.268;2023-05-07T07:30:38;9.15;;;3.55;;
80163;SDS011;69489;55.130;61.268;2023-05-07T07:35:30;12.75;;;3.90;;
80163;SDS011;69489;55.130;61.268;2023-05-07T07:37:56;9.15;;;3.92;;
80163;SDS011;69489;55.130;61.268;2023-05-07T07:42:49;9.27;;;4.03;;
80163;SDS011;69489;55.130;61.268;2023-05-07T07:47:40;16.63;;;3.55;;
80163;SDS011;69489;55.130;61.268;2023-05-07T07:52:32;26.55;;;4.40;;
80163;SDS011;69489;55.130;61.268;2023-05-07T07:54:58;11.60;;;2.92;;
80163;SDS011;69489;55.130;61.268;2023-05-07T07:57:24;18.33;;;4.10;;
80163;SDS011;69489;55.130;61.268;2023-05-07T07:59:50;10.73;;;3.85;;
80163;SDS011;69489;55.130;61.268;2023-05-07T08:02:16;15.45;;;3.40;;
80163;SDS011;69489;55.130;61.268;2023-05-07T08:04:42;19.73;;;4.53;;
80163;SDS011;69489;55.130;61.268;2023-05-07T08:07:11;17.45;;;4.15;;
80163;SDS011;69489;55.130;61.268;2023-05-07T08:09:38;18.45;;;4.53;;
80163;SDS011;69489;55.130;61.268;2023-05-07T08:12:04;14.00;;;4.50;;
80163;SDS011;69489;55.130;61.268;2023-05-07T08:14:31;20.60;;;5.63;;
80163;SDS011;69489;55.130;61.268;2023-05-07T08:19:22;14.65;;;3.95;;
80163;SDS011;69489;55.130;61.268;2023-05-07T08:21:48;11.80;;;4.53;;
80163;SDS011;69489;55.130;61.268;2023-05-07T08:26:40;12.32;;;3.00;;
80163;SDS011;69489;55.130;61.268;2023-05-07T08:31:31;21.60;;;4.88;;
80163;SDS011;69489;55.130;61.268;2023-05-07T08:33:57;18.80;;;3.75;;
80163;SDS011;69489;55.130;61.268;2023-05-07T08:36:24;20.55;;;4.78;;
80163;SDS011;69489;55.130;61.268;2023-05-07T08:38:51;19.70;;;4.40;;
80163;SDS011;69489;55.130;61.268;2023-05-07T08:41:17;12.88;;;3.70;;
80163;SDS011;69489;55.130;61.268;2023-05-07T08:43:45;16.98;;;4.07;;
80163;SDS011;69489;55.130;61.268;2023-05-07T08:46:15;13.07;;;3.50;;
80163;SDS011;69489;55.130;61.268;2023-05-07T08:48:47;14.18;;;3.40;;
80163;SDS011;69489;55.130;61.268;2023-05-07T08:51:18;14.25;;;3.85;;
80163;SDS011;69489;55.130;61.268;2023-05-07T08:53:45;22.15;;;4.05;;
80163;SDS011;69489;55.130;61.268;2023-05-07T08:56:13;11.88;;;3.53;;
80163;SDS011;69489;55.130;61.268;2023-05-07T08:58:41;15.23;;;3.33;;
80163;SDS011;69489;55.130;61.268;2023-05-07T09:01:08;16.02;;;4.32;;
80163;SDS011;69489;55.130;61.268;2023-05-07T09:03:38;9.45;;;3.40;;
80163;SDS011;69489;55.130;61.268;2023-05-07T09:06:05;10.35;;;3.30;;
80163;SDS011;69489;55.130;61.268;2023-05-07T09:10:58;17.77;;;3.90;;
80163;SDS011;69489;55.130;61.268;2023-05-07T09:15:49;8.88;;;2.75;;
80163;SDS011;69489;55.130;61.268;2023-05-07T09:20:41;16.55;;;4.32;;
80163;SDS011;69489;55.130;61.268;2023-05-07T09:23:07;20.70;;;3.88;;
80163;SDS011;69489;55.130;61.268;2023-05-07T09:25:34;20.63;;;3.63;;
80163;SDS011;69489;55.130;61.268;2023-05-07T09:28:01;9.82;;;3.42;;
80163;SDS011;69489;55.130;61.268;2023-05-07T09:30:29;14.93;;;4.30;;
80163;SDS011;69489;55.130;61.268;2023-05-07T09:32:56;13.13;;;3.63;;
80163;SDS011;69489;55.130;61.268;2023-05-07T09:35:24;11.88;;;4.30;;
80163;SDS011;69489;55.130;61.268;2023-05-07T09:37:53;9.25;;;3.22;;
80163;SDS011;69489;55.130;61.268;2023-05-07T09:40:21;16.23;;;4.22;;
80163;SDS011;69489;55.130;61.268;2023-05-07T09:42:50;18.00;;;3.95;;
80163;SDS011;69489;55.130;61.268;2023-05-07T09:45:24;13.73;;;3.80;;
80163;SDS011;69489;55.130;61.268;2023-05-07T09:47:53;10.57;;;4.18;;
80163;SDS011;69489;55.130;61.268;2023-05-07T09:50:22;14.25;;;3.55;;
80163;SDS011;69489;55.130;61.268;2023-05-07T09:52:53;18.88;;;4.03;;
80163;SDS011;69489;55.130;61.268;2023-05-07T09:55:20;17.38;;;3.70;;
80163;SDS011;69489;55.130;61.268;2023-05-07T09:57:48;18.08;;;4.53;;
80163;SDS011;69489;55.130;61.268;2023-05-07T10:00:17;15.20;;;3.90;;
80163;SDS011;69489;55.130;61.268;2023-05-07T10:02:51;21.33;;;4.72;;
80163;SDS011;69489;55.130;61.268;2023-05-07T10:05:18;17.95;;;3.75;;
80163;SDS011;69489;55.130;61.268;2023-05-07T10:07:45;12.77;;;3.72;;
80163;SDS011;69489;55.130;61.268;2023-05-07T10:10:11;14.15;;;3.85;;
80163;SDS011;69489;55.130;61.268;2023-05-07T10:12:38;11.68;;;3.33;;
80163;SDS011;69489;55.130;61.268;2023-05-07T10:15:09;20.38;;;4.20;;
80163;SDS011;69489;55.130;61.268;2023-05-07T10:17:36;21.38;;;5.00;;
80163;SDS011;69489;55.130;61.268;2023-05-07T10:20:04;16.10;;;4.43;;
80163;SDS011;69489;55.130;61.268;2023-05-07T10:22:32;19.52;;;5.13;;
80163;SDS011;69489;55.130;61.268;2023-05-07T10:25:03;15.23;;;3.58;;
80163;SDS011;69489;55.130;61.268;2023-05-07T10:27:36;13.00;;;4.05;;
80163;SDS011;69489;55.130;61.268;2023-05-07T10:30:15;16.17;;;4.40;;
80163;SDS011;69489;55.130;61.268;2023-05-07T10:33:05;23.50;;;5.05;;
80163;SDS011;69489;55.130;61.268;2023-05-07T10:35:43;15.85;;;3.97;;
80163;SDS011;69489;55.130;61.268;2023-05-07T10:38:12;21.70;;;5.35;;
80163;SDS011;69489;55.130;61.268;2023-05-07T10:40:38;29.92;;;5.63;;
80163;SDS011;69489;55.130;61.268;2023-05-07T10:43:05;30.75;;;5.57;;
80163;SDS011;69489;55.130;61.268;2023-05-07T10:45:31;28.63;;;5.50;;
80163;SDS011;69489;55.130;61.268;2023-05-07T10:50:40;15.60;;;4.43;;
80163;SDS011;69489;55.130;61.268;2023-05-07T10:55:42;18.52;;;3.85;;
80163;SDS011;69489;55.130;61.268;2023-05-07T11:00:46;75.57;;;49.67;;
80163;SDS011;69489;55.130;61.268;2023-05-07T11:03:12;114.28;;;82.93;;
80163;SDS011;69489;55.130;61.268;2023-05-07T11:05:40;59.22;;;35.50;;
80163;SDS011;69489;55.130;61.268;2023-05-07T11:08:06;59.17;;;37.33;;
80163;SDS011;69489;55.130;61.268;2023-05-07T11:10:48;24.52;;;6.28;;
80163;SDS011;69489;55.130;61.268;2023-05-07T11:13:18;14.85;;;2.63;;
80163;SDS011;69489;55.130;61.268;2023-05-07T11:16:04;14.95;;;3.22;;
80163;SDS011;69489;55.130;61.268;2023-05-07T11:18:45;14.07;;;2.78;;
80163;SDS011;69489;55.130;61.268;2023-05-07T11:21:13;9.82;;;2.90;;
80163;SDS011;69489;55.130;61.268;2023-05-07T11:23:57;9.73;;;2.38;;
80163;SDS011;69489;55.130;61.268;2023-05-07T11:26:24;12.95;;;3.20;;
80163;SDS011;69489;55.130;61.268;2023-05-07T11:28:50;41.13;;;16.58;;
80163;SDS011;69489;55.130;61.268;2023-05-07T11:31:20;70.85;;;45.22;;
80163;SDS011;69489;55.130;61.268;2023-05-07T11:33:48;15.63;;;5.72;;
80163;SDS011;69489;55.130;61.268;2023-05-07T11:36:14;7.60;;;2.20;;
80163;SDS011;69489;55.130;61.268;2023-05-07T11:38:40;17.83;;;6.97;;
80163;SDS011;69489;55.130;61.268;2023-05-07T11:41:07;9.38;;;2.10;;
80163;SDS011;69489;55.130;61.268;2023-05-07T11:43:33;9.20;;;3.90;;
80163;SDS011;69489;55.130;61.268;2023-05-07T11:48:33;45.15;;;31.10;;
80163;SDS011;69489;55.130;61.268;2023-05-07T11:51:06;61.55;;;45.15;;
80163;SDS011;69489;55.130;61.268;2023-05-07T11:53:37;63.55;;;44.75;;
80163;SDS011;69489;55.130;61.268;2023-05-07T11:56:08;60.95;;;41.83;;
80163;SDS011;69489;55.130;61.268;2023-05-07T11:58:35;51.10;;;32.85;;
80163;SDS011;69489;55.130;61.268;2023-05-07T12:01:01;66.38;;;41.30;;
80163;SDS011;69489;55.130;61.268;2023-05-07T12:03:27;10.15;;;6.65;;
80163;SDS011;69489;55.130;61.268;2023-05-07T12:05:53;16.98;;;10.02;;
80163;SDS011;69489;55.130;61.268;2023-05-07T12:08:19;20.40;;;12.40;;
80163;SDS011;69489;55.130;61.268;2023-05-07T12:10:49;33.28;;;17.65;;
80163;SDS011;69489;55.130;61.268;2023-05-07T12:13:23;23.92;;;9.77;;
80163;SDS011;69489;55.130;61.268;2023-05-07T12:15:51;11.55;;;5.07;;
80163;SDS011;69489;55.130;61.268;2023-05-07T12:18:19;14.43;;;5.85;;
80163;SDS011;69489;55.130;61.268;2023-05-07T12:20:46;6.07;;;2.30;;
80163;SDS011;69489;55.130;61.268;2023-05-07T12:23:12;2.80;;;1.60;;
80163;SDS011;69489;55.130;61.268;2023-05-07T12:25:39;7.68;;;1.88;;
80163;SDS011;69489;55.130;61.268;2023-05-07T12:28:15;5.00;;;1.70;;
80163;SDS011;69489;55.130;61.268;2023-05-07T12:30:42;3.50;;;2.55;;
80163;SDS011;69489;55.130;61.268;2023-05-07T12:33:09;4.15;;;1.63;;
80163;SDS011;69489;55.130;61.268;2023-05-07T12:35:36;7.75;;;3.40;;
80163;SDS011;69489;55.130;61.268;2023-05-07T12:38:08;9.95;;;6.53;;
80163;SDS011;69489;55.130;61.268;2023-05-07T12:40:48;8.18;;;2.72;;
80163;SDS011;69489;55.130;61.268;2023-05-07T12:43:24;9.15;;;4.68;;
80163;SDS011;69489;55.130;61.268;2023-05-07T12:45:54;10.43;;;6.07;;
80163;SDS011;69489;55.130;61.268;2023-05-07T12:48:21;12.75;;;5.00;;
80163;SDS011;69489;55.130;61.268;2023-05-07T12:50:51;19.10;;;12.55;;
80163;SDS011;69489;55.130;61.268;2023-05-07T12:53:20;18.85;;;12.18;;
80163;SDS011;69489;55.130;61.268;2023-05-07T12:55:48;18.13;;;11.52;;
80163;SDS011;69489;55.130;61.268;2023-05-07T12:58:16;21.58;;;14.65;;
80163;SDS011;69489;55.130;61.268;2023-05-07T13:00:55;19.67;;;13.63;;
80163;SDS011;69489;55.130;61.268;2023-05-07T13:03:24;11.30;;;7.68;;
80163;SDS011;69489;55.130;61.268;2023-05-07T13:05:59;11.32;;;5.53;;
80163;SDS011;69489;55.130;61.268;2023-05-07T13:08:29;9.80;;;5.47;;
80163;SDS011;69489;55.130;61.268;2023-05-07T13:10:57;8.27;;;3.65;;
80163;SDS011;69489;55.130;61.268;2023-05-07T13:13:32;6.10;;;2.60;;
80163;SDS011;69489;55.130;61.268;2023-05-07T13:15:59;9.00;;;4.10;;
80163;SDS011;69489;55.130;61.268;2023-05-07T13:18:26;7.10;;;3.35;;
80163;SDS011;69489;55.130;61.268;2023-05-07T13:20:55;5.85;;;1.73;;
80163;SDS011;69489;55.130;61.268;2023-05-07T13:23:21;4.40;;;1.65;;
80163;SDS011;69489;55.130;61.268;2023-05-07T13:25:48;4.38;;;1.73;;
80163;SDS011;69489;55.130;61.268;2023-05-07T13:28:14;3.40;;;0.98;;
80163;SDS011;69489;55.130;61.268;2023-05-07T13:30:40;4.32;;;2.05;;
80163;SDS011;69489;55.130;61.268;2023-05-07T13:33:06;7.15;;;1.98;;
80163;SDS011;69489;55.130;61.268;2023-05-07T13:35:32;4.35;;;1.50;;
80163;SDS011;69489;55.130;61.268;2023-05-07T13:37:58;4.35;;;1.30;;
80163;SDS011;69489;55.130;61.268;2023-05-07T13:40:24;4.22;;;1.23;;
80163;SDS011;69489;55.130;61.268;2023-05-07T13:42:50;5.65;;;1.35;;
80163;SDS011;69489;55.130;61.268;2023-05-07T13:45:20;5.22;;;1.58;;
80163;SDS011;69489;55.130;61.268;2023-05-07T13:47:46;4.38;;;2.63;;
80163;SDS011;69489;55.130;61.268;2023-05-07T13:50:14;3.42;;;1.88;;
80163;SDS011;69489;55.130;61.268;2023-05-07T13:52:40;4.32;;;1.98;;
80163;SDS011;69489;55.130;61.268;2023-05-07T13:55:08;6.13;;;1.95;;
80163;SDS011;69489;55.130;61.268;2023-05-07T13:57:38;3.65;;;1.77;;
80163;SDS011;69489;55.130;61.268;2023-05-07T14:02:30;3.78;;;1.77;;
80163;SDS011;69489;55.130;61.268;2023-05-07T14:04:56;3.40;;;1.80;;
80163;SDS011;69489;55.130;61.268;2023-05-07T14:09:48;4.15;;;1.40;;
80163;SDS011;69489;55.130;61.268;2023-05-07T14:12:13;3.28;;;1.55;;
80163;SDS011;69489;55.130;61.268;2023-05-07T14:14:39;5.30;;;2.28;;
80163;SDS011;69489;55.130;61.268;2023-05-07T14:17:05;12.80;;;7.05;;
80163;SDS011;69489;55.130;61.268;2023-05-07T14:19:31;3.03;;;1.83;;
80163;SDS011;69489;55.130;61.268;2023-05-07T14:21:57;5.65;;;1.52;;
80163;SDS011;69489;55.130;61.268;2023-05-07T14:24:23;2.95;;;1.85;;
80163;SDS011;69489;55.130;61.268;2023-05-07T14:26:49;5.32;;;1.83;;
80163;SDS011;69489;55.130;61.268;2023-05-07T14:29:16;1.30;;;0.75;;
80163;SDS011;69489;55.130;61.268;2023-05-07T14:31:44;3.28;;;1.70;;
80163;SDS011;69489;55.130;61.268;2023-05-07T14:34:10;2.70;;;1.05;;
80163;SDS011;69489;55.130;61.268;2023-05-07T14:36:36;2.53;;;1.50;;
80163;SDS011;69489;55.130;61.268;2023-05-07T14:39:03;3.28;;;1.42;;
80163;SDS011;69489;55.130;61.268;2023-05-07T14:43:55;5.10;;;1.17;;
80163;SDS011;69489;55.130;61.268;2023-05-07T14:46:21;4.15;;;1.67;;
80163;SDS011;69489;55.130;61.268;2023-05-07T14:51:13;2.55;;;1.02;;
80163;SDS011;69489;55.130;61.268;2023-05-07T14:53:40;5.07;;;3.00;;
80163;SDS011;69489;55.130;61.268;2023-05-07T14:56:07;5.40;;;1.98;;
80163;SDS011;69489;55.130;61.268;2023-05-07T14:58:33;3.17;;;1.83;;
80163;SDS011;69489;55.130;61.268;2023-05-07T15:01:00;4.15;;;1.88;;
80163;SDS011;69489;55.130;61.268;2023-05-07T15:03:26;2.70;;;1.70;;
80163;SDS011;69489;55.130;61.268;2023-05-07T15:05:52;3.45;;;1.38;;
80163;SDS011;69489;55.130;61.268;2023-05-07T15:08:18;3.97;;;1.60;;
80163;SDS011;69489;55.130;61.268;2023-05-07T15:10:44;2.97;;;1.38;;
80163;SDS011;69489;55.130;61.268;2023-05-07T15:13:11;3.83;;;1.50;;
80163;SDS011;69489;55.130;61.268;2023-05-07T15:15:41;4.85;;;2.60;;
80163;SDS011;69489;55.130;61.268;2023-05-07T15:18:08;2.83;;;1.65;;
80163;SDS011;69489;55.130;61.268;2023-05-07T15:20:35;5.18;;;3.60;;
80163;SDS011;69489;55.130;61.268;2023-05-07T15:23:01;3.83;;;1.13;;
80163;SDS011;69489;55.130;61.268;2023-05-07T15:25:29;4.68;;;1.17;;
80163;SDS011;69489;55.130;61.268;2023-05-07T15:27:56;6.25;;;2.67;;
80163;SDS011;69489;55.130;61.268;2023-05-07T15:30:22;2.80;;;0.90;;
80163;SDS011;69489;55.130;61.268;2023-05-07T15:32:48;2.72;;;0.90;;